createdAt,value
2017-07-25T00:00:29.898Z,101.1
2017-07-25T00:01:29.097Z,101
2017-07-25T00:02:28.053Z,100.9
2017-07-25T00:03:27.503Z,101.1
2017-07-25T00:04:26.598Z,100.7
2017-07-25T00:05:25.671Z,100.6
2017-07-25T00:06:25.117Z,100.8
2017-07-25T00:07:24.207Z,100.9
2017-07-25T00:08:23.773Z,100.4
2017-07-25T00:10:22.246Z,100.6
2017-07-25T00:11:21.436Z,100.6
2017-07-25T00:12:20.515Z,100.8
2017-07-25T00:13:19.703Z,100.8
2017-07-25T00:14:19.051Z,100.9
2017-07-25T00:15:18.255Z,100.3
2017-07-25T00:16:17.451Z,100.3
2017-07-25T00:17:17.148Z,100.8
2017-07-25T00:17:47.658Z,100.8
2017-07-25T00:18:18.170Z,100.6
2017-07-25T00:18:48.546Z,100.6
2017-07-25T00:20:14.797Z,101.3
2017-07-25T00:21:14.008Z,101.6
2017-07-25T00:22:13.073Z,101
2017-07-25T00:23:12.263Z,101
2017-07-25T00:24:11.449Z,101.2
2017-07-25T00:26:10.421Z,100.5
2017-07-25T00:27:09.620Z,100.5
2017-07-25T00:28:08.464Z,100.5
2017-07-25T00:29:08.182Z,100.6
2017-07-25T00:30:07.381Z,100.4
2017-07-25T00:31:06.495Z,100.5
2017-07-25T00:32:05.690Z,100.7
2017-07-25T00:34:04.032Z,100.5
2017-07-25T00:35:03.369Z,100.6
2017-07-25T00:36:02.463Z,100
2017-07-25T00:37:02.041Z,99.5
2017-07-25T00:38:00.883Z,99.8
2017-07-25T00:39:00.464Z,100
2017-07-25T00:39:59.424Z,100.4
2017-07-25T00:44:56.175Z,101.2
2017-07-25T00:46:54.650Z,100.5
2017-07-25T00:47:53.618Z,100.7
2017-07-25T00:48:52.585Z,100.8
2017-07-25T00:50:51.445Z,100.3
2017-07-25T00:51:50.637Z,99.9
2017-07-25T00:52:49.838Z,100.3
2017-07-25T00:53:48.928Z,99.6
2017-07-25T00:54:48.510Z,99.5
2017-07-25T00:55:47.719Z,99.6
2017-07-25T00:56:47.187Z,99.7
2017-07-25T00:57:46.380Z,99.6
2017-07-25T00:58:45.465Z,100
2017-07-25T01:00:44.065Z,99.4
2017-07-25T01:01:43.136Z,99.4
2017-07-25T01:02:42.338Z,99.7
2017-07-25T01:03:41.534Z,99.9
2017-07-25T01:04:40.738Z,100.2
2017-07-25T01:05:40.307Z,99.8
2017-07-25T01:07:38.892Z,99.7
2017-07-25T01:09:37.002Z,99.5
2017-07-25T01:11:35.470Z,99.7
2017-07-25T01:13:34.060Z,99.8
2017-07-25T01:14:04.562Z,99.8
2017-07-25T01:14:35.054Z,99.7
2017-07-25T01:15:05.448Z,99.7
2017-07-25T01:16:31.727Z,99.7
2017-07-25T01:17:31.191Z,100
2017-07-25T01:18:30.259Z,100.3
2017-07-25T01:20:28.848Z,99.9
2017-07-25T01:22:27.433Z,99.6
2017-07-25T01:23:26.505Z,99.6
2017-07-25T01:24:25.585Z,100
2017-07-25T01:24:55.854Z,100
2017-07-25T01:25:26.121Z,99.9
2017-07-25T01:25:56.899Z,99.9
2017-07-25T01:27:23.792Z,100.3
2017-07-25T01:28:22.990Z,100.4
2017-07-25T01:29:21.947Z,100.7
2017-07-25T01:30:21.643Z,100.1
2017-07-25T01:32:19.729Z,99.6
2017-07-25T01:33:19.204Z,99.2
2017-07-25T01:34:18.295Z,99.3
2017-07-25T01:35:17.487Z,99
2017-07-25T01:36:17.065Z,99.2
2017-07-25T01:37:16.144Z,99.2
2017-07-25T01:38:15.245Z,99.5
2017-07-25T01:39:14.434Z,99.5
2017-07-25T01:40:14.141Z,99.6
2017-07-25T01:42:12.618Z,100.1
2017-07-25T01:43:11.816Z,99.9
2017-07-25T01:43:42.205Z,99.9
2017-07-25T01:44:12.706Z,99.6
2017-07-25T01:44:43.101Z,99.6
2017-07-25T01:46:09.479Z,100.2
2017-07-25T01:47:08.557Z,99.8
2017-07-25T01:48:07.750Z,99.7
2017-07-25T01:49:07.218Z,99.7
2017-07-25T01:50:06.439Z,99.7
2017-07-25T01:51:05.635Z,99.5
2017-07-25T01:52:04.840Z,99.4
2017-07-25T01:54:03.211Z,99.8
2017-07-25T01:55:02.673Z,99.8
2017-07-25T01:57:01.137Z,99.6
2017-07-25T01:58:00.333Z,99.7
2017-07-25T01:58:59.792Z,99.6
2017-07-25T01:59:58.992Z,99.7
2017-07-25T02:00:58.063Z,99.9
2017-07-25T02:02:56.640Z,99.8
2017-07-25T02:03:55.854Z,99.8
2017-07-25T02:04:55.048Z,99.7
2017-07-25T02:05:25.562Z,99.7
2017-07-25T02:06:53.441Z,100
2017-07-25T02:07:23.960Z,100
2017-07-25T02:07:54.478Z,100.2
2017-07-25T02:08:24.759Z,100.2
2017-07-25T02:09:51.134Z,100
2017-07-25T02:10:50.722Z,99.8
2017-07-25T02:12:49.034Z,99.8
2017-07-25T02:13:48.232Z,100
2017-07-25T02:14:47.425Z,100.2
2017-07-25T02:15:46.637Z,99.7
2017-07-25T02:16:46.324Z,99.6
2017-07-25T02:17:45.505Z,99.5
2017-07-25T02:18:44.468Z,99.5
2017-07-25T02:19:44.034Z,99.4
2017-07-25T02:20:43.228Z,99.5
2017-07-25T02:21:42.415Z,99.4
2017-07-25T02:23:40.898Z,99.2
2017-07-25T02:26:38.748Z,99.6
2017-07-25T02:29:36.219Z,99.8
2017-07-25T02:30:35.421Z,99.1
2017-07-25T02:31:34.893Z,99.1
2017-07-25T02:32:34.096Z,99.4
2017-07-25T02:33:33.281Z,99
2017-07-25T02:34:32.483Z,99.2
2017-07-25T02:35:31.671Z,99.3
2017-07-25T02:36:02.068Z,99.3
2017-07-25T02:36:32.574Z,99.4
2017-07-25T02:37:05.656Z,99.4
2017-07-25T02:37:33.655Z,99.1
2017-07-25T02:38:03.940Z,99.1
2017-07-25T02:38:34.337Z,99.3
2017-07-25T02:39:28.533Z,98.6
2017-07-25T02:40:28.008Z,98.8
2017-07-25T02:41:27.098Z,98.8
2017-07-25T02:42:26.294Z,99
2017-07-25T02:43:25.903Z,98.9
2017-07-25T02:44:25.120Z,98.8
2017-07-25T02:45:24.317Z,98.6
2017-07-25T02:46:23.536Z,98.6
2017-07-25T02:47:22.742Z,98.6
2017-07-25T02:48:22.199Z,98.6
2017-07-25T02:49:21.180Z,98.7
2017-07-25T02:50:20.389Z,98.6
2017-07-25T02:51:19.491Z,98.7
2017-07-25T02:52:19.199Z,98.9
2017-07-25T02:53:18.403Z,98.9
2017-07-25T02:54:17.500Z,98.6
2017-07-25T02:55:16.475Z,98.6
2017-07-25T02:56:16.072Z,98.6
2017-07-25T02:57:15.139Z,98.7
2017-07-25T02:58:14.599Z,98.8
2017-07-25T02:59:13.434Z,99
2017-07-25T03:00:13.145Z,99.1
2017-07-25T03:01:12.339Z,99.2
2017-07-25T03:01:42.747Z,99.2
2017-07-25T03:03:10.530Z,99.2
2017-07-25T03:05:08.913Z,99.1
2017-07-25T03:06:08.115Z,99
2017-07-25T03:07:07.825Z,99.2
2017-07-25T03:08:07.041Z,99.6
2017-07-25T03:09:06.020Z,99.2
2017-07-25T03:10:05.373Z,99.2
2017-07-25T03:13:03.002Z,99.4
2017-07-25T03:14:02.204Z,99.6
2017-07-25T03:15:01.785Z,99.5
2017-07-25T03:16:00.872Z,100.1
2017-07-25T03:17:00.079Z,100.6
2017-07-25T03:17:59.273Z,100.1
2017-07-25T03:18:58.475Z,100.3
2017-07-25T03:19:57.702Z,100
2017-07-25T03:20:56.912Z,100.2
2017-07-25T03:21:56.001Z,100.2
2017-07-25T03:22:55.704Z,100.3
2017-07-25T03:23:54.910Z,100.1
2017-07-25T03:24:54.111Z,100.3
2017-07-25T03:25:53.089Z,100.7
2017-07-25T03:26:52.303Z,101
2017-07-25T03:27:51.890Z,100.9
2017-07-25T03:28:51.093Z,101
2017-07-25T03:29:50.062Z,101.5
2017-07-25T03:30:49.274Z,101.3
2017-07-25T03:31:19.798Z,101.3
2017-07-25T03:33:47.090Z,101.8
2017-07-25T03:34:17.485Z,101.8
2017-07-25T03:34:47.881Z,101.6
2017-07-25T03:35:45.580Z,101.6
2017-07-25T03:36:44.649Z,101.6
2017-07-25T03:37:43.858Z,101.4
2017-07-25T03:38:43.438Z,101.5
2017-07-25T03:39:42.630Z,101.6
2017-07-25T03:40:41.842Z,101.8
2017-07-25T03:41:41.048Z,102.1
2017-07-25T03:42:40.256Z,102.5
2017-07-25T03:43:39.466Z,102.3
2017-07-25T03:44:38.672Z,102.2
2017-07-25T03:45:37.762Z,102.4
2017-07-25T03:46:36.987Z,102
2017-07-25T03:47:36.206Z,102
2017-07-25T03:48:35.915Z,101.8
2017-07-25T03:50:34.374Z,102
2017-07-25T03:51:33.600Z,101.9
2017-07-25T03:52:32.682Z,101.8
2017-07-25T03:53:31.767Z,101.6
2017-07-25T03:54:30.993Z,101.4
2017-07-25T03:55:01.508Z,101.4
2017-07-25T03:55:31.905Z,101.3
2017-07-25T03:56:29.600Z,101.5
2017-07-25T03:57:28.682Z,101.5
2017-07-25T03:58:27.879Z,101.1
2017-07-25T03:59:27.464Z,101.1
2017-07-25T04:00:26.670Z,101.2
2017-07-25T04:01:25.872Z,101
2017-07-25T04:02:25.069Z,101.2
2017-07-25T04:03:24.159Z,101.1
2017-07-25T04:04:23.360Z,101.4
2017-07-25T04:06:21.964Z,101
2017-07-25T04:07:21.194Z,101.1
2017-07-25T04:08:20.541Z,101.2
2017-07-25T04:09:19.769Z,101.3
2017-07-25T04:10:18.876Z,101.3
2017-07-25T04:11:18.079Z,100.8
2017-07-25T04:11:48.598Z,100.8
2017-07-25T04:12:19.006Z,100.9
2017-07-25T04:12:49.532Z,100.9
2017-07-25T04:14:15.802Z,100.9
2017-07-25T04:15:14.877Z,101.3
2017-07-25T04:16:14.449Z,101.4
2017-07-25T04:17:13.427Z,100.8
2017-07-25T04:18:12.673Z,100.7
2017-07-25T04:19:12.145Z,100.9
2017-07-25T04:20:11.117Z,101.1
2017-07-25T04:21:10.212Z,101.1
2017-07-25T04:21:40.607Z,101.1
2017-07-25T04:22:11.009Z,100.8
2017-07-25T04:22:41.517Z,100.8
2017-07-25T04:23:11.918Z,100.7
2017-07-25T04:23:42.434Z,100.7
2017-07-25T04:24:12.942Z,100.3
2017-07-25T04:24:43.458Z,100.3
2017-07-25T04:26:06.816Z,100.4
2017-07-25T04:27:06.008Z,100.4
2017-07-25T04:28:05.220Z,100.5
2017-07-25T04:29:04.313Z,100.3
2017-07-25T04:30:03.391Z,100.6
2017-07-25T04:31:02.978Z,100.5
2017-07-25T04:32:02.185Z,99.9
2017-07-25T04:33:01.144Z,100.5
2017-07-25T04:34:00.350Z,100.4
2017-07-25T04:34:59.824Z,100.2
2017-07-25T04:35:59.011Z,100.4
2017-07-25T04:36:58.099Z,100.4
2017-07-25T04:37:57.303Z,100.4
2017-07-25T04:38:56.490Z,100.2
2017-07-25T04:39:55.696Z,100.2
2017-07-25T04:40:54.895Z,100
2017-07-25T04:41:54.473Z,99.9
2017-07-25T04:42:53.669Z,99.9
2017-07-25T04:43:52.633Z,99.9
2017-07-25T04:44:52.227Z,100.1
2017-07-25T04:45:51.442Z,100.1
2017-07-25T04:46:50.647Z,100
2017-07-25T04:48:48.733Z,99.8
2017-07-25T04:49:48.015Z,100.3
2017-07-25T04:50:47.603Z,100
2017-07-25T04:51:46.797Z,99.8
2017-07-25T04:52:45.886Z,99.6
2017-07-25T04:53:44.968Z,99.9
2017-07-25T04:54:44.169Z,99.9
2017-07-25T04:55:43.365Z,99.7
2017-07-25T04:56:42.578Z,99.8
2017-07-25T04:57:41.790Z,99.9
2017-07-25T04:58:41.383Z,99.8
2017-07-25T04:59:40.456Z,99.8
2017-07-25T05:00:39.538Z,99.7
2017-07-25T05:01:38.764Z,99.6
2017-07-25T05:02:37.967Z,100
2017-07-25T05:03:37.669Z,99.4
2017-07-25T05:04:08.187Z,99.4
2017-07-25T05:05:36.088Z,99.6
2017-07-25T05:06:35.174Z,99.9
2017-07-25T05:07:34.159Z,100
2017-07-25T05:08:33.745Z,99.7
2017-07-25T05:09:32.950Z,99.8
2017-07-25T05:10:32.163Z,99.9
2017-07-25T05:11:31.375Z,100
2017-07-25T05:12:30.449Z,100.1
2017-07-25T05:13:29.528Z,100.3
2017-07-25T05:14:28.722Z,100.3
2017-07-25T05:15:27.930Z,99.7
2017-07-25T05:16:27.640Z,99.8
2017-07-25T05:17:26.715Z,100.2
2017-07-25T05:18:26.058Z,100.2
2017-07-25T05:19:25.254Z,100.1
2017-07-25T05:19:55.755Z,100.1
2017-07-25T05:20:26.143Z,100.1
2017-07-25T05:21:23.329Z,100.3
2017-07-25T05:22:22.535Z,100.3
2017-07-25T05:23:22.241Z,100.3
2017-07-25T05:24:21.440Z,100.5
2017-07-25T05:25:20.647Z,100.7
2017-07-25T05:26:19.728Z,100.4
2017-07-25T05:27:18.923Z,100.4
2017-07-25T05:28:18.115Z,100.5
2017-07-25T05:29:17.452Z,100.7
2017-07-25T05:30:16.819Z,100.8
2017-07-25T05:31:16.013Z,100.3
2017-07-25T05:32:15.230Z,100.4
2017-07-25T05:33:14.456Z,100.3
2017-07-25T05:34:13.661Z,100.4
2017-07-25T05:35:12.858Z,100.3
2017-07-25T05:36:11.937Z,100.3
2017-07-25T05:37:11.020Z,100.5
2017-07-25T05:38:10.591Z,100.5
2017-07-25T05:39:09.677Z,100.6
2017-07-25T05:40:08.767Z,100.7
2017-07-25T05:41:07.966Z,100.7
2017-07-25T05:42:07.560Z,100.8
2017-07-25T05:43:06.657Z,100.8
2017-07-25T05:44:05.842Z,100.9
2017-07-25T05:45:05.047Z,100.9
2017-07-25T05:46:04.248Z,100.8
2017-07-25T05:47:03.344Z,100.8
2017-07-25T05:48:02.539Z,100.7
2017-07-25T05:49:02.127Z,100.9
2017-07-25T05:50:01.317Z,100.9
2017-07-25T05:51:00.413Z,100.6
2017-07-25T05:51:59.508Z,100.5
2017-07-25T05:52:59.087Z,100.4
2017-07-25T05:53:58.298Z,100.6
2017-07-25T05:54:57.373Z,100.7
2017-07-25T05:55:56.597Z,100.7
2017-07-25T05:56:55.693Z,100.9
2017-07-25T05:57:54.910Z,101
2017-07-25T05:58:54.099Z,100.9
2017-07-25T05:59:53.689Z,101.2
2017-07-25T06:00:52.898Z,101.5
2017-07-25T06:01:52.100Z,101.7
2017-07-25T06:02:51.312Z,100.9
2017-07-25T06:03:50.389Z,100.9
2017-07-25T06:04:49.859Z,100.7
2017-07-25T06:05:48.837Z,100.7
2017-07-25T06:06:48.027Z,100.7
2017-07-25T06:07:47.226Z,100.7
2017-07-25T06:08:46.310Z,100.9
2017-07-25T06:09:45.540Z,101
2017-07-25T06:10:15.940Z,101
2017-07-25T06:10:46.334Z,101.3
2017-07-25T06:11:16.607Z,101.3
2017-07-25T06:11:46.883Z,101.2
2017-07-25T06:12:17.545Z,101.2
2017-07-25T06:13:42.575Z,101.2
2017-07-25T06:14:41.783Z,101.3
2017-07-25T06:15:40.986Z,101.4
2017-07-25T06:16:40.208Z,101.1
2017-07-25T06:17:39.793Z,101.3
2017-07-25T06:18:38.996Z,101.2
2017-07-25T06:19:38.128Z,100.9
2017-07-25T06:20:37.346Z,100.8
2017-07-25T06:21:36.555Z,100.6
2017-07-25T06:22:35.651Z,100.4
2017-07-25T06:23:34.846Z,100.4
2017-07-25T06:24:34.058Z,100.3
2017-07-25T06:25:33.255Z,100.6
2017-07-25T06:26:32.825Z,100.7
2017-07-25T06:27:32.023Z,101.1
2017-07-25T06:28:31.228Z,101.2
2017-07-25T06:29:01.758Z,101.2
2017-07-25T06:29:32.163Z,101.1
2017-07-25T06:30:02.675Z,101.1
2017-07-25T06:31:29.057Z,100.9
2017-07-25T06:32:28.021Z,100.8
2017-07-25T06:33:27.117Z,100.8
2017-07-25T06:34:26.301Z,101
2017-07-25T06:35:25.891Z,100.7
2017-07-25T06:36:24.976Z,100.8
2017-07-25T06:37:24.063Z,100.7
2017-07-25T06:38:23.265Z,101
2017-07-25T06:39:22.728Z,101.2
2017-07-25T06:40:21.932Z,101
2017-07-25T06:41:21.021Z,101
2017-07-25T06:42:20.221Z,101.2
2017-07-25T06:42:50.731Z,101.2
2017-07-25T06:44:18.499Z,100.9
2017-07-25T06:45:18.205Z,100.9
2017-07-25T06:46:17.400Z,101.3
2017-07-25T06:47:16.369Z,101.5
2017-07-25T06:48:15.958Z,101.8
2017-07-25T06:49:15.029Z,101.5
2017-07-25T06:50:14.121Z,101.1
2017-07-25T06:50:44.519Z,101.1
2017-07-25T06:52:12.673Z,100.6
2017-07-25T06:53:11.627Z,100.7
2017-07-25T06:54:11.326Z,100.7
2017-07-25T06:55:10.533Z,100.8
2017-07-25T06:56:09.623Z,100.9
2017-07-25T06:57:08.822Z,101.1
2017-07-25T06:58:08.047Z,100.9
2017-07-25T06:59:07.252Z,100.8
2017-07-25T07:00:06.447Z,100.8
2017-07-25T07:01:05.644Z,100.9
2017-07-25T07:03:04.118Z,100.8
2017-07-25T07:04:03.314Z,100.6
2017-07-25T07:05:02.895Z,100.7
2017-07-25T07:06:01.981Z,100.8
2017-07-25T07:07:01.178Z,100.9
2017-07-25T07:08:00.386Z,100.9
2017-07-25T07:08:59.478Z,100.5
2017-07-25T07:09:59.055Z,100.7
2017-07-25T07:10:58.135Z,101.1
2017-07-25T07:11:57.331Z,100.9
2017-07-25T07:12:56.536Z,100.5
2017-07-25T07:13:55.736Z,100.5
2017-07-25T07:14:55.084Z,100.2
2017-07-25T07:15:54.176Z,100.4
2017-07-25T07:16:53.754Z,100.4
2017-07-25T07:17:52.975Z,100.4
2017-07-25T07:18:51.941Z,100.1
2017-07-25T07:19:51.140Z,100.2
2017-07-25T07:20:50.716Z,100.2
2017-07-25T07:21:49.679Z,100.4
2017-07-25T07:22:20.476Z,100.4
2017-07-25T07:22:50.988Z,100.7
2017-07-25T07:23:47.944Z,100.2
2017-07-25T07:24:47.652Z,99.7
2017-07-25T07:25:46.730Z,99.8
2017-07-25T07:26:45.803Z,100.1
2017-07-25T07:27:45.271Z,99.3
2017-07-25T07:28:44.350Z,99.7
2017-07-25T07:29:43.816Z,99.7
2017-07-25T07:30:42.780Z,100.2
2017-07-25T07:31:42.367Z,100
2017-07-25T07:32:41.566Z,100.1
2017-07-25T07:33:40.764Z,99.5
2017-07-25T07:34:39.983Z,99.6
2017-07-25T07:35:39.193Z,99.8
2017-07-25T07:36:38.383Z,99.4
2017-07-25T07:37:08.781Z,99.4
2017-07-25T07:38:36.669Z,99.8
2017-07-25T07:39:35.869Z,99.7
2017-07-25T07:40:35.072Z,99.5
2017-07-25T07:41:34.656Z,99.8
2017-07-25T07:42:33.738Z,99.8
2017-07-25T07:43:32.832Z,99.3
2017-07-25T07:44:32.419Z,99.2
2017-07-25T07:45:31.502Z,99.2
2017-07-25T07:46:30.711Z,98.9
2017-07-25T07:47:30.161Z,99.2
2017-07-25T07:48:29.013Z,99.3
2017-07-25T07:49:28.486Z,99.5
2017-07-25T07:50:27.949Z,99.5
2017-07-25T07:51:27.029Z,99.2
2017-07-25T07:52:26.240Z,98.9
2017-07-25T07:53:25.325Z,98.6
2017-07-25T07:54:24.407Z,98.5
2017-07-25T07:55:23.877Z,98.7
2017-07-25T07:56:23.340Z,98.8
2017-07-25T07:57:22.542Z,98.5
2017-07-25T07:58:21.741Z,99.4
2017-07-25T07:58:52.257Z,99.4
2017-07-25T08:00:20.147Z,98.9
2017-07-25T08:01:19.341Z,99
2017-07-25T08:02:18.309Z,98.5
2017-07-25T08:03:17.794Z,98.7
2017-07-25T08:04:17.144Z,99.2
2017-07-25T08:05:16.228Z,98.6
2017-07-25T08:06:15.820Z,98.1
2017-07-25T08:07:15.014Z,97.9
2017-07-25T08:08:14.092Z,98.3
2017-07-25T08:09:13.293Z,98.2
2017-07-25T08:10:12.498Z,98.5
2017-07-25T08:11:11.708Z,98.7
2017-07-25T08:12:11.296Z,98.7
2017-07-25T08:13:10.510Z,99
2017-07-25T08:14:09.590Z,97.5
2017-07-25T08:15:09.060Z,97.3
2017-07-25T08:16:08.271Z,97.7
2017-07-25T08:16:38.774Z,97.7
2017-07-25T08:17:09.288Z,98
2017-07-25T08:17:39.810Z,98
2017-07-25T08:18:10.319Z,97.3
2017-07-25T08:18:40.823Z,97.3
2017-07-25T08:20:05.200Z,97.7
2017-07-25T08:21:04.284Z,98
2017-07-25T08:22:03.366Z,97.7
2017-07-25T08:23:03.070Z,97.8
2017-07-25T08:24:02.159Z,97.7
2017-07-25T08:25:01.632Z,97.9
2017-07-25T08:26:00.846Z,97.7
2017-07-25T08:26:59.810Z,97.6
2017-07-25T08:27:59.014Z,97.6
2017-07-25T08:28:29.526Z,97.6
2017-07-25T08:28:59.933Z,97.9
2017-07-25T08:29:30.443Z,97.9
2017-07-25T08:30:00.953Z,97.3
2017-07-25T08:30:31.382Z,97.3
2017-07-25T08:31:56.258Z,97.1
2017-07-25T08:32:55.468Z,97.3
2017-07-25T08:33:54.671Z,97.1
2017-07-25T08:34:53.861Z,97.3
2017-07-25T08:35:53.444Z,98.1
2017-07-25T08:36:52.289Z,97.4
2017-07-25T08:37:51.495Z,97.4
2017-07-25T08:38:51.078Z,97.3
2017-07-25T08:39:49.933Z,97.3
2017-07-25T08:40:49.278Z,97.5
2017-07-25T08:41:48.874Z,97.8
2017-07-25T08:42:48.084Z,97.4
2017-07-25T08:43:47.044Z,96.6
2017-07-25T08:44:46.250Z,96
2017-07-25T08:46:44.841Z,96.4
2017-07-25T08:47:44.049Z,96.5
2017-07-25T08:48:43.630Z,95.6
2017-07-25T08:49:42.841Z,96.3
2017-07-25T08:50:41.928Z,96.3
2017-07-25T08:51:41.120Z,95.7
2017-07-25T08:52:40.204Z,95.4
2017-07-25T08:53:39.895Z,95.1
2017-07-25T08:54:39.098Z,94.9
2017-07-25T08:55:38.310Z,94.9
2017-07-25T08:56:37.394Z,95.3
2017-07-25T08:57:36.490Z,95.3
2017-07-25T08:58:36.121Z,95.7
2017-07-25T08:59:35.198Z,95.1
2017-07-25T09:00:34.414Z,94.5
2017-07-25T09:01:34.115Z,94.2
2017-07-25T09:02:33.318Z,94.4
2017-07-25T09:03:32.414Z,94.7
2017-07-25T09:04:31.504Z,94.7
2017-07-25T09:05:30.970Z,94.3
2017-07-25T09:06:30.059Z,93.9
2017-07-25T09:07:29.132Z,94
2017-07-25T09:08:28.611Z,93.7
2017-07-25T09:09:28.218Z,94
2017-07-25T09:09:58.619Z,94
2017-07-25T09:10:29.019Z,93.7
2017-07-25T09:10:59.540Z,93.7
2017-07-25T09:12:25.805Z,93.3
2017-07-25T09:13:25.290Z,92.7
2017-07-25T09:15:23.272Z,93.2
2017-07-25T09:16:22.809Z,92.5
2017-07-25T09:17:21.886Z,91.8
2017-07-25T09:18:21.471Z,91.9
2017-07-25T09:19:20.824Z,91.9
2017-07-25T09:20:19.799Z,92.1
2017-07-25T09:21:18.988Z,92.5
2017-07-25T09:22:18.586Z,92.8
2017-07-25T09:23:17.661Z,92.1
2017-07-25T09:24:17.150Z,91.8
2017-07-25T09:25:16.246Z,92.2
2017-07-25T09:25:46.766Z,92.2
2017-07-25T09:26:17.164Z,92.2
2017-07-25T09:27:14.851Z,92
2017-07-25T09:28:14.053Z,92.3
2017-07-25T09:29:13.121Z,92
2017-07-25T09:30:12.726Z,92.1
2017-07-25T09:31:11.820Z,91.8
2017-07-25T09:32:11.761Z,92
2017-07-25T09:33:10.348Z,92.3
2017-07-25T09:34:09.552Z,92.3
2017-07-25T09:35:09.019Z,92.9
2017-07-25T09:36:08.216Z,92.4
2017-07-25T09:37:07.421Z,92.5
2017-07-25T09:38:06.613Z,91.8
2017-07-25T09:39:06.188Z,91.8
2017-07-25T09:40:05.267Z,92.1
2017-07-25T09:41:04.748Z,91.4
2017-07-25T09:42:03.844Z,91
2017-07-25T09:43:03.043Z,91.5
2017-07-25T09:44:02.524Z,91.3
2017-07-25T09:45:01.605Z,91.2
2017-07-25T09:46:01.077Z,91.8
2017-07-25T09:47:00.431Z,92.5
2017-07-25T09:47:59.528Z,92.3
2017-07-25T09:48:58.713Z,92.6
2017-07-25T09:49:57.909Z,91.3
2017-07-25T09:50:57.508Z,91.8
2017-07-25T09:51:56.589Z,91.9
2017-07-25T09:52:56.177Z,90.9
2017-07-25T09:53:55.370Z,90.9
2017-07-25T09:54:54.457Z,90.4
2017-07-25T09:55:53.661Z,90.1
2017-07-25T09:56:52.863Z,90.4
2017-07-25T09:57:52.571Z,91
2017-07-25T09:58:51.773Z,90.7
2017-07-25T09:59:50.983Z,90.7
2017-07-25T10:00:50.068Z,91.3
2017-07-25T10:01:49.767Z,90.6
2017-07-25T10:02:48.982Z,90.1
2017-07-25T10:04:47.586Z,89.8
2017-07-25T10:05:46.789Z,89.5
2017-07-25T10:06:45.781Z,90
2017-07-25T10:07:45.240Z,90.2
2017-07-25T10:08:44.217Z,89.1
2017-07-25T10:09:43.923Z,89
2017-07-25T10:10:43.121Z,89.2
2017-07-25T10:11:42.200Z,89
2017-07-25T10:13:40.806Z,87.8
2017-07-25T10:15:39.397Z,87.8
2017-07-25T10:16:09.784Z,87.8
2017-07-25T10:16:40.309Z,88.2
2017-07-25T10:17:10.842Z,88.2
2017-07-25T10:17:41.118Z,88.6
2017-07-25T10:18:11.507Z,88.6
2017-07-25T10:18:41.899Z,88
2017-07-25T10:19:12.417Z,88
2017-07-25T10:20:35.782Z,87.8
2017-07-25T10:22:34.371Z,85.8
2017-07-25T10:23:34.098Z,86.6
2017-07-25T10:24:33.174Z,86.4
2017-07-25T10:25:32.365Z,86.2
2017-07-25T10:26:31.573Z,85.2
2017-07-25T10:27:31.036Z,84.7
2017-07-25T10:28:30.236Z,85.3
2017-07-25T10:29:29.821Z,85.5
2017-07-25T10:30:28.910Z,85.4
2017-07-25T10:31:28.115Z,85.7
2017-07-25T10:32:27.821Z,86.3
2017-07-25T10:33:26.925Z,85.8
2017-07-25T10:34:26.120Z,85.4
2017-07-25T10:36:24.584Z,86
2017-07-25T10:37:24.052Z,86.2
2017-07-25T10:38:23.257Z,85.8
2017-07-25T10:39:22.730Z,85.2
2017-07-25T10:40:21.935Z,84.5
2017-07-25T10:41:21.405Z,85.1
2017-07-25T10:42:20.372Z,84.8
2017-07-25T10:43:19.961Z,84.2
2017-07-25T10:44:19.031Z,84.3
2017-07-25T10:45:18.722Z,84.2
2017-07-25T10:46:17.915Z,84.4
2017-07-25T10:47:17.142Z,85.6
2017-07-25T10:47:47.415Z,85.6
2017-07-25T10:48:17.827Z,85.9
2017-07-25T10:48:48.120Z,85.9
2017-07-25T10:50:15.012Z,84.3
2017-07-25T10:51:14.096Z,84.8
2017-07-25T10:52:13.703Z,85
2017-07-25T10:53:12.899Z,85.2
2017-07-25T10:54:12.114Z,85.3
2017-07-25T10:55:11.827Z,85.3
2017-07-25T10:57:10.418Z,85.4
2017-07-25T10:58:09.269Z,85.5
2017-07-25T10:59:08.745Z,85.8
2017-07-25T11:00:08.453Z,86.3
2017-07-25T11:01:07.549Z,87.7
2017-07-25T11:02:06.891Z,86.8
2017-07-25T11:03:06.096Z,85.3
2017-07-25T11:04:05.552Z,83.1
2017-07-25T11:05:04.752Z,83.8
2017-07-25T11:06:03.834Z,84.3
2017-07-25T11:07:03.540Z,85.2
2017-07-25T11:08:02.728Z,83.1
2017-07-25T11:09:01.702Z,83.3
2017-07-25T11:10:01.306Z,81.8
2017-07-25T11:11:00.665Z,82.2
2017-07-25T11:11:59.755Z,82.7
2017-07-25T11:12:59.457Z,83.5
2017-07-25T11:13:58.654Z,83.2
2017-07-25T11:14:57.856Z,82.6
2017-07-25T11:15:57.444Z,82.3
2017-07-25T11:16:56.535Z,82.1
2017-07-25T11:17:55.734Z,84.3
2017-07-25T11:18:55.452Z,83.3
2017-07-25T11:19:54.654Z,84
2017-07-25T11:20:53.870Z,84.6
2017-07-25T11:21:53.439Z,84.4
2017-07-25T11:22:52.510Z,84.6
2017-07-25T11:23:52.092Z,84.4
2017-07-25T11:24:22.386Z,84.4
2017-07-25T11:24:52.783Z,84.7
2017-07-25T11:25:50.360Z,84.7
2017-07-25T11:26:50.061Z,84.5
2017-07-25T11:27:49.262Z,84.8
2017-07-25T11:28:48.449Z,85.2
2017-07-25T11:29:48.042Z,86.1
2017-07-25T11:30:47.120Z,85
2017-07-25T11:31:46.591Z,85.2
2017-07-25T11:32:45.698Z,84.3
2017-07-25T11:33:45.283Z,84.7
2017-07-25T11:34:44.368Z,83.5
2017-07-25T11:35:43.572Z,83.1
2017-07-25T11:36:43.280Z,83.3
2017-07-25T11:37:42.475Z,83
2017-07-25T11:38:41.558Z,83.7
2017-07-25T11:39:41.135Z,82.1
2017-07-25T11:40:40.348Z,83
2017-07-25T11:41:39.930Z,82.3
2017-07-25T11:42:39.123Z,81
2017-07-25T11:43:38.207Z,82.3
2017-07-25T11:44:08.592Z,82.3
2017-07-25T11:45:37.242Z,82.2
2017-07-25T11:46:36.710Z,83.6
2017-07-25T11:47:35.925Z,84.3
2017-07-25T11:48:35.017Z,85.2
2017-07-25T11:49:34.711Z,85.7
2017-07-25T11:50:34.063Z,86.9
2017-07-25T11:51:33.266Z,87.7
2017-07-25T11:52:32.356Z,88.5
2017-07-25T11:53:32.071Z,89.3
2017-07-25T11:55:30.268Z,90.6
2017-07-25T11:56:29.736Z,91
2017-07-25T11:57:28.951Z,91.4
2017-07-25T11:58:28.546Z,91.7
2017-07-25T11:59:27.737Z,91.8
2017-07-25T12:00:26.928Z,91.6
2017-07-25T12:01:26.569Z,91.2
2017-07-25T12:02:25.767Z,91
2017-07-25T12:03:25.345Z,90.6
2017-07-25T12:04:24.556Z,91
2017-07-25T12:05:23.756Z,91.3
2017-07-25T12:05:54.281Z,91.3
2017-07-25T12:06:24.791Z,91.6
2017-07-25T12:06:55.449Z,91.6
2017-07-25T12:08:21.823Z,91.6
2017-07-25T12:10:20.424Z,91
2017-07-25T12:11:19.507Z,90.7
2017-07-25T12:12:18.863Z,91.2
2017-07-25T12:13:18.569Z,91.5
2017-07-25T12:14:17.531Z,91.8
2017-07-25T12:15:17.026Z,92.1
2017-07-25T12:16:16.233Z,92.5
2017-07-25T12:17:15.822Z,93.1
2017-07-25T12:18:15.020Z,93.5
2017-07-25T12:19:14.137Z,93.9
2017-07-25T12:20:13.330Z,94
2017-07-25T12:21:12.924Z,94.3
2017-07-25T12:22:12.122Z,94.6
2017-07-25T12:23:11.207Z,95
2017-07-25T12:25:10.296Z,95.3
2017-07-25T12:26:09.373Z,95.6
2017-07-25T12:27:08.738Z,95.4
2017-07-25T12:28:07.821Z,95.3
2017-07-25T12:29:07.160Z,95.4
2017-07-25T12:30:06.370Z,95.2
2017-07-25T12:31:05.841Z,95.6
2017-07-25T12:32:05.037Z,95.7
2017-07-25T12:33:04.747Z,96
2017-07-25T12:34:03.952Z,96.1
2017-07-25T12:35:03.028Z,96.1
2017-07-25T12:35:33.552Z,96.1
2017-07-25T12:36:03.952Z,96.7
2017-07-25T12:36:34.470Z,96.7
2017-07-25T12:37:04.863Z,96.9
2017-07-25T12:37:35.371Z,96.9
2017-07-25T12:38:05.779Z,96.8
2017-07-25T12:38:36.173Z,96.8
2017-07-25T12:39:59.416Z,96.2
2017-07-25T12:40:58.998Z,96.5
2017-07-25T12:42:57.591Z,96.3
2017-07-25T12:43:56.790Z,96.5
2017-07-25T12:44:56.378Z,96
2017-07-25T12:45:55.582Z,95.7
2017-07-25T12:46:54.799Z,96.3
2017-07-25T12:47:54.000Z,96
2017-07-25T12:48:53.197Z,95.6
2017-07-25T12:49:52.787Z,96
2017-07-25T12:50:51.873Z,95.4
2017-07-25T12:51:51.073Z,95.9
2017-07-25T12:52:50.557Z,95.2
2017-07-25T12:53:49.637Z,94.9
2017-07-25T12:54:49.215Z,94.4
2017-07-25T12:55:48.295Z,94.6
2017-07-25T12:56:47.884Z,95.1
2017-07-25T12:57:46.980Z,95
2017-07-25T12:58:46.569Z,95.2
2017-07-25T12:59:45.411Z,94.8
2017-07-25T13:00:44.800Z,94.6
2017-07-25T13:01:44.385Z,94.4
2017-07-25T13:02:43.590Z,94.8
2017-07-25T13:03:42.797Z,94.6
2017-07-25T13:04:42.005Z,94.4
2017-07-25T13:05:41.591Z,93.6
2017-07-25T13:06:40.576Z,93.4
2017-07-25T13:07:40.284Z,93.1
2017-07-25T13:08:39.486Z,93.2
2017-07-25T13:09:38.699Z,93.6
2017-07-25T13:10:38.159Z,94
2017-07-25T13:11:37.123Z,94.3
2017-07-25T13:13:35.589Z,92.5
2017-07-25T13:14:35.174Z,90.7
2017-07-25T13:15:34.268Z,91.4
2017-07-25T13:16:33.850Z,92.3
2017-07-25T13:17:32.939Z,92.1